createdAt,value
2023-02-20T00:02:16.252Z,81.24
2023-02-20T00:07:16.966Z,81.14
2023-02-20T00:12:17.679Z,81.24
2023-02-20T00:17:18.413Z,81.35
2023-02-20T00:22:19.145Z,81.56
2023-02-20T00:27:19.870Z,81.76
2023-02-20T00:32:20.628Z,82.18
2023-02-20T00:37:21.351Z,82.28
2023-02-20T00:42:22.058Z,82.07
2023-02-20T00:47:22.780Z,82.28
2023-02-20T00:52:23.514Z,82.59
2023-02-20T00:57:25.002Z,82.39
2023-02-20T01:02:24.766Z,83.01
2023-02-20T01:07:25.581Z,83.01
2023-02-20T01:12:26.265Z,83.11
2023-02-20T01:17:26.979Z,82.49
2023-02-20T01:22:27.716Z,82.90
2023-02-20T01:27:28.423Z,82.70
2023-02-20T01:32:29.140Z,82.24
2023-02-20T01:37:29.872Z,82.45
2023-02-20T01:42:30.586Z,82.14
2023-02-20T01:47:31.347Z,82.45
2023-02-20T01:52:32.075Z,82.55
2023-02-20T01:57:32.777Z,82.45
2023-02-20T02:02:33.508Z,82.76
2023-02-20T02:07:34.227Z,82.65
2023-02-20T02:12:34.913Z,82.82
2023-02-20T02:17:35.650Z,82.20
2023-02-20T02:22:36.376Z,82.10
2023-02-20T02:27:37.097Z,82.17
2023-02-20T02:32:37.802Z,81.96
2023-02-20T02:37:38.507Z,82.06
2023-02-20T02:42:39.250Z,82.17
2023-02-20T02:47:39.963Z,82.17
2023-02-20T02:52:40.726Z,82.13
2023-02-20T02:57:41.498Z,82.44
2023-02-20T03:02:42.226Z,82.75
2023-02-20T03:07:42.892Z,82.86
2023-02-20T03:12:43.625Z,82.75
2023-02-20T03:17:44.312Z,83.26
2023-02-20T03:22:45.037Z,83.12
2023-02-20T03:27:45.738Z,83.44
2023-02-20T03:32:47.024Z,83.54
2023-02-20T03:37:47.235Z,83.64
2023-02-20T03:42:48.031Z,83.44
2023-02-20T03:47:48.770Z,83.64
2023-02-20T03:52:49.493Z,83.61
2023-02-20T03:57:50.205Z,83.50
2023-02-20T04:02:50.907Z,83.61
2023-02-20T04:07:51.617Z,83.81
2023-02-20T04:12:53.039Z,84.22
2023-02-20T04:17:53.226Z,84.22
2023-02-20T04:22:53.927Z,84.64
2023-02-20T04:27:54.650Z,84.95
2023-02-20T04:32:55.391Z,85.05
2023-02-20T04:37:56.076Z,85.57
2023-02-20T04:42:56.784Z,85.42
2023-02-20T04:47:57.493Z,85.42
2023-02-20T04:52:58.228Z,85.84
2023-02-20T04:57:58.925Z,85.84
2023-02-20T05:02:59.633Z,85.74
2023-02-20T05:08:00.360Z,85.74
2023-02-20T05:13:01.097Z,86.46
2023-02-20T05:18:01.788Z,86.05
2023-02-20T05:23:02.502Z,86.52
2023-02-20T05:28:03.262Z,86.52
2023-02-20T05:33:03.988Z,86.73
2023-02-20T05:38:04.688Z,87.25
2023-02-20T05:43:12.410Z,88.18
2023-02-20T05:48:06.099Z,88.18
2023-02-20T05:53:06.779Z,88.90
2023-02-20T05:58:07.416Z,89.48
2023-02-20T06:03:08.093Z,90.89
2023-02-20T06:08:08.742Z,87.07
2023-02-20T06:13:09.419Z,87.83
2023-02-20T06:18:10.082Z,88.39
2023-02-20T06:23:10.702Z,88.59
2023-02-20T06:28:11.385Z,88.76
2023-02-20T06:33:12.047Z,88.55
2023-02-20T06:38:12.714Z,88.45
2023-02-20T06:43:13.374Z,88.45
2023-02-20T06:48:14.032Z,89.17
2023-02-20T06:53:14.713Z,88.71
2023-02-20T06:58:15.366Z,88.61
2023-02-20T07:03:16.035Z,87.89
2023-02-20T07:08:16.708Z,87.77
2023-02-20T07:13:17.383Z,83.75
2023-02-20T07:18:18.020Z,84.41
2023-02-20T07:23:18.676Z,84.44
2023-02-20T07:28:19.340Z,84.44
2023-02-20T07:33:19.977Z,83.78
2023-02-20T07:38:20.620Z,83.58
2023-02-20T07:43:21.298Z,83.58
2023-02-20T07:48:21.930Z,82.82
2023-02-20T07:53:22.589Z,81.68
2023-02-20T07:58:23.248Z,81.37
2023-02-20T08:03:23.892Z,81.48
2023-02-20T08:08:24.543Z,81.07
2023-02-20T08:13:25.226Z,80.30
2023-02-20T08:18:25.854Z,80.20
2023-02-20T08:23:26.507Z,79.07
2023-02-20T08:28:27.219Z,79.65
2023-02-20T08:33:27.833Z,79.24
2023-02-20T08:38:28.539Z,78.93
2023-02-20T08:43:29.197Z,78.62
2023-02-20T08:48:29.831Z,78.83
2023-02-20T08:53:30.495Z,78.38
2023-02-20T08:58:31.142Z,77.76
2023-02-20T09:03:31.836Z,77.72
2023-02-20T09:08:32.479Z,77.31
2023-02-20T09:13:33.180Z,76.59
2023-02-20T09:18:33.861Z,76.66
2023-02-20T09:23:34.527Z,76.14
2023-02-20T09:28:35.163Z,75.49
2023-02-20T09:33:35.809Z,75.70
2023-02-20T09:38:36.784Z,75.04
2023-02-20T09:43:36.989Z,74.53
2023-02-20T09:48:37.631Z,74.22
2023-02-20T09:53:38.274Z,74.50
2023-02-20T09:58:38.927Z,73.78
2023-02-20T10:03:39.618Z,72.82
2023-02-20T10:08:40.256Z,72.82
2023-02-20T10:13:40.904Z,72.58
2023-02-20T10:18:41.552Z,72.51
2023-02-20T10:23:42.227Z,73.13
2023-02-20T10:28:42.986Z,72.51
2023-02-20T10:33:43.644Z,72.68
2023-02-20T10:38:44.290Z,72.24
2023-02-20T10:43:44.967Z,71.83
2023-02-20T10:48:45.629Z,71.59
2023-02-20T10:53:46.293Z,71.83
2023-02-20T10:58:46.964Z,72.65
2023-02-20T11:03:47.598Z,72.31
2023-02-20T11:08:48.253Z,72.61
2023-02-20T11:13:48.944Z,72.82
2023-02-20T11:18:49.621Z,72.78
2023-02-20T11:23:50.273Z,73.40
2023-02-20T11:28:50.946Z,73.50
2023-02-20T11:33:51.578Z,74.32
2023-02-20T11:38:52.237Z,74.63
2023-02-20T11:44:01.338Z,75.04
2023-02-20T11:48:54.446Z,75.45
2023-02-20T11:53:54.070Z,75.45
2023-02-20T11:58:54.740Z,75.76
2023-02-20T12:03:55.378Z,75.96
2023-02-20T12:08:56.035Z,76.48
2023-02-20T12:13:56.730Z,76.78
2023-02-20T12:18:57.426Z,77.20
2023-02-20T12:23:58.075Z,76.85
2023-02-20T12:28:58.736Z,76.85
2023-02-20T12:33:59.394Z,77.47
2023-02-20T12:39:00.068Z,77.57
2023-02-20T12:44:12.943Z,77.77
2023-02-20T12:49:02.233Z,77.87
2023-02-20T12:54:01.954Z,78.19
2023-02-20T12:59:02.634Z,78.63
2023-02-20T13:04:03.315Z,79.24
2023-02-20T13:09:03.934Z,79.86
2023-02-20T13:14:04.620Z,80.68
2023-02-20T13:19:05.298Z,81.29
2023-02-20T13:24:05.928Z,82.46
2023-02-20T13:29:06.574Z,83.49
2023-02-20T13:34:07.237Z,83.90
2023-02-20T13:39:08.001Z,84.76
2023-02-20T13:44:08.621Z,85.38
2023-02-20T13:49:16.296Z,85.89
2023-02-20T13:54:09.929Z,86.09
2023-02-20T13:59:10.624Z,85.99
2023-02-20T14:04:11.309Z,86.09
2023-02-20T14:09:11.947Z,86.09
2023-02-20T14:14:13.597Z,86.09
2023-02-20T14:19:13.215Z,86.44
2023-02-20T14:24:13.854Z,86.19
2023-02-20T14:29:14.510Z,86.03
2023-02-20T14:34:15.191Z,85.89
2023-02-20T14:39:15.814Z,85.68
2023-02-20T14:44:16.467Z,85.47
2023-02-20T14:49:17.158Z,84.96
2023-02-20T14:54:17.786Z,84.66
2023-02-20T14:59:18.439Z,84.34
2023-02-20T15:04:19.118Z,83.49
2023-02-20T15:09:22.750Z,83.49
2023-02-20T15:14:20.410Z,83.18
2023-02-20T15:19:21.089Z,83.07
2023-02-20T15:24:21.819Z,82.87
2023-02-20T15:29:22.463Z,82.77
2023-02-20T15:34:23.116Z,82.87
2023-02-20T15:39:23.747Z,82.97
2023-02-20T15:44:24.410Z,82.67
2023-02-20T15:49:25.094Z,82.87
2023-02-20T15:54:25.754Z,83.07
2023-02-20T15:59:26.514Z,83.28
2023-02-20T16:04:27.127Z,83.39
2023-02-20T16:09:27.829Z,83.80
2023-02-20T16:14:28.578Z,84.10
2023-02-20T16:25:17.945Z,85.47
2023-02-20T16:30:32.299Z,86.09
2023-02-20T16:35:20.116Z,87.02
2023-02-20T16:40:19.788Z,87.84
2023-02-20T16:45:20.467Z,88.59
2023-02-20T16:50:21.122Z,89.42
2023-02-20T16:55:21.841Z,89.62
2023-02-20T17:00:22.598Z,89.62
2023-02-20T17:05:23.374Z,89.72
2023-02-20T17:10:24.040Z,90.03
2023-02-20T17:15:24.796Z,90.03
2023-02-20T17:20:25.583Z,90.34
2023-02-20T17:25:26.284Z,90.34
2023-02-20T17:30:27.294Z,90.24
2023-02-20T17:35:28.518Z,90.44
2023-02-20T17:40:28.312Z,91.37
2023-02-20T17:45:28.996Z,91.57
2023-02-20T17:50:29.647Z,92.44
2023-02-20T17:55:31.693Z,92.64
2023-02-20T18:00:30.807Z,92.95
2023-02-20T18:05:31.552Z,93.26
2023-02-20T18:10:32.246Z,93.16
2023-02-20T18:15:32.957Z,93.46
2023-02-20T18:20:33.675Z,93.57
2023-02-20T18:25:40.637Z,94.18
2023-02-20T18:30:36.093Z,94.49
2023-02-20T18:35:35.814Z,95.01
2023-02-20T18:40:36.539Z,95.72
2023-02-20T18:45:37.441Z,95.83
2023-02-20T18:50:38.092Z,96.44
2023-02-20T18:55:38.812Z,96.90
2023-02-20T19:00:39.731Z,97.00
2023-02-20T19:05:40.032Z,97.31
2023-02-20T19:10:40.942Z,97.27
2023-02-20T19:15:41.611Z,97.06
2023-02-20T19:20:42.321Z,97.27
2023-02-20T19:25:43.118Z,97.62
2023-02-20T19:30:43.806Z,97.72
2023-02-20T19:35:44.520Z,98.03
2023-02-20T19:40:45.225Z,97.57
2023-02-20T19:45:45.973Z,97.57
2023-02-20T19:50:46.754Z,97.37
2023-02-20T19:55:47.444Z,97.27
2023-02-20T20:00:48.201Z,96.85
2023-02-20T20:05:48.922Z,96.85
2023-02-20T20:10:49.640Z,96.65
2023-02-20T20:15:50.343Z,96.65
2023-02-20T20:20:51.052Z,96.44
2023-02-20T20:25:51.802Z,96.23
2023-02-20T20:30:52.697Z,96.03
2023-02-20T20:35:52.942Z,95.57
2023-02-20T20:40:53.697Z,95.37
2023-02-20T20:45:54.650Z,94.85
2023-02-20T20:50:55.307Z,94.85
2023-02-20T20:55:56.033Z,94.85
2023-02-20T21:00:56.736Z,95.06
2023-02-20T21:05:57.478Z,95.27
2023-02-20T21:10:58.162Z,95.17
2023-02-20T21:15:59.007Z,95.37
2023-02-20T21:20:59.727Z,95.57
2023-02-20T21:26:00.448Z,95.37
2023-02-20T21:31:01.198Z,95.06
2023-02-20T21:36:01.893Z,94.76
2023-02-20T21:41:02.588Z,94.55
2023-02-20T21:46:03.351Z,94.20
2023-02-20T21:51:04.090Z,94.10
2023-02-20T21:56:04.795Z,94.10
2023-02-20T22:01:05.509Z,94.10
2023-02-20T22:06:06.238Z,94.20
2023-02-20T22:11:06.920Z,94.51
2023-02-20T22:16:07.678Z,94.85
2023-02-20T22:21:08.374Z,95.43
2023-02-20T22:26:09.069Z,95.89
2023-02-20T22:31:09.965Z,96.60
2023-02-20T22:36:10.806Z,97.02
2023-02-20T22:41:11.716Z,97.32
2023-02-20T22:46:12.023Z,97.63
2023-02-20T22:51:13.305Z,97.94
2023-02-20T22:56:13.585Z,98.35
2023-02-20T23:01:14.685Z,98.35
2023-02-20T23:06:18.437Z,98.55
2023-02-20T23:11:16.042Z,98.86
2023-02-20T23:16:16.443Z,98.96
2023-02-20T23:21:17.146Z,98.96
2023-02-20T23:26:17.880Z,98.96
2023-02-20T23:31:18.613Z,99.27
2023-02-20T23:36:19.320Z,99.89
2023-02-20T23:41:20.007Z,99.99
2023-02-20T23:46:20.707Z,99.99
2023-02-20T23:51:21.440Z,99.99
2023-02-20T23:56:22.131Z,99.99
